Ironside, Oregon
Current Conditions -  °F | °C
As of 6:53 AM on Wednesday 26 Nov 2014 (Local Time) from KBKE Reporting Station
Clear Clear  
Wind Chill: 25°   Ceiling: Unl
Heat Index: 30°   Visibility: 10mi
Dew Point: 29°   Wind: 5mph
Humidity: 96%   Direction: NA
Pressure: 30.27"   Gusts: NA
Location:  44.32°N, 117.95°W
Report Text: KBKE 261353Z AUTO VRB04KT 10SM CLR M01/M02 A3027 RMK AO2 SLP269 T10111017 $
Loading
Personal Weather Stations






























Interactive Weather Map New forecast layout! Learn more

10-Day Weather Forecast

Advertisements
Track Severe Weather on mobile